createdAt,value
2019-05-26T00:01:05.924Z,94995.78
2019-05-26T00:03:34.541Z,94999.58
2019-05-26T00:06:03.217Z,94999.58
2019-05-26T00:08:31.819Z,94997.91
2019-05-26T00:11:00.893Z,94997.91
2019-05-26T00:13:29.573Z,94989.12
2019-05-26T00:15:58.681Z,94989.12
2019-05-26T00:18:27.353Z,94991.43
2019-05-26T00:20:56.527Z,94991.43
2019-05-26T00:23:25.144Z,94985.81
2019-05-26T00:25:53.821Z,94985.81
2019-05-26T00:28:23.166Z,94988.42
2019-05-26T00:30:52.059Z,94980.79
2019-05-26T00:33:20.990Z,94980.79
2019-05-26T00:35:49.659Z,94980.75
2019-05-26T00:38:18.325Z,94980.75
2019-05-26T00:40:47.278Z,94981.38
2019-05-26T00:43:15.999Z,94987.47
2019-05-26T00:45:44.747Z,94984.11
2019-05-26T00:48:13.465Z,94979.91
2019-05-26T00:50:42.114Z,94979.91
2019-05-26T00:53:10.851Z,94978.57
2019-05-26T00:55:39.734Z,94968.97
2019-05-26T00:58:08.488Z,94979.38
2019-05-26T01:00:38.919Z,94979.38
2019-05-26T01:03:08.688Z,94971.28
2019-05-26T01:05:37.352Z,94976.69
2019-05-26T01:08:07.012Z,94977.42
2019-05-26T01:10:35.953Z,94971.32
2019-05-26T01:13:04.800Z,94968.81
2019-05-26T01:15:33.586Z,94968.81
2019-05-26T01:18:02.528Z,94976.13
2019-05-26T01:20:31.287Z,94959.55
2019-05-26T01:23:00.190Z,94959.55
2019-05-26T01:25:28.790Z,94968.17
2019-05-26T01:27:57.565Z,94963.98
2019-05-26T01:30:37.932Z,94961.03
2019-05-26T01:33:07.365Z,94961.03
2019-05-26T01:35:39.380Z,94966.60
2019-05-26T01:38:22.383Z,94960.78
2019-05-26T01:40:41.054Z,94954.44
2019-05-26T01:43:10.271Z,94948.76
2019-05-26T01:45:39.297Z,94945.78
2019-05-26T01:48:08.394Z,94950.44
2019-05-26T01:50:37.855Z,94937.07
2019-05-26T01:53:07.143Z,94947.63
2019-05-26T01:55:35.902Z,94944.50
2019-05-26T01:58:04.756Z,94943.83
2019-05-26T02:00:33.822Z,94941.85
2019-05-26T02:03:02.699Z,94943.53
2019-05-26T02:05:31.414Z,94943.68
2019-05-26T02:08:00.185Z,94943.68
2019-05-26T02:10:29.073Z,94933.97
2019-05-26T02:12:57.698Z,94942.42
2019-05-26T02:15:26.738Z,94927.84
2019-05-26T02:17:55.398Z,94938.63
2019-05-26T02:20:24.320Z,94940.09
2019-05-26T02:22:54.053Z,94938.38
2019-05-26T02:25:22.729Z,94941.21
2019-05-26T02:27:51.375Z,94941.21
2019-05-26T02:30:20.567Z,94941.84
2019-05-26T02:32:49.729Z,94943.09
2019-05-26T02:35:18.918Z,94943.11
2019-05-26T02:37:47.524Z,94937.97
2019-05-26T02:40:18.465Z,94939.43
2019-05-26T02:42:47.160Z,94943.30
2019-05-26T02:45:16.533Z,94948.94
2019-05-26T02:47:45.680Z,94948.94
2019-05-26T02:50:15.315Z,94945.83
2019-05-26T02:52:44.066Z,94941.48
2019-05-26T02:55:14.529Z,94937.41
2019-05-26T02:57:43.171Z,94937.41
2019-05-26T03:00:12.568Z,94934.70
2019-05-26T03:02:41.363Z,94928.92
2019-05-26T03:05:11.063Z,94920.58
2019-05-26T03:07:42.502Z,94926.28
2019-05-26T03:10:11.614Z,94924.59
2019-05-26T03:12:42.594Z,94920.13
2019-05-26T03:15:12.020Z,94920.13
2019-05-26T03:17:42.547Z,94929.80
2019-05-26T03:20:12.904Z,94926.30
2019-05-26T03:22:41.883Z,94913.48
2019-05-26T03:25:11.070Z,94916.21
2019-05-26T03:27:39.928Z,94916.21
2019-05-26T03:30:08.743Z,94918.18
2019-05-26T03:32:37.681Z,94917.03
2019-05-26T03:35:07.386Z,94914.52
2019-05-26T03:37:36.071Z,94914.52
2019-05-26T03:40:06.472Z,94908.80
2019-05-26T03:42:35.202Z,94908.80
2019-05-26T03:45:04.217Z,94897.60
2019-05-26T03:47:33.065Z,94907.65
2019-05-26T03:50:01.996Z,94907.65
2019-05-26T03:52:31.047Z,94907.67
2019-05-26T03:54:59.940Z,94900.63
2019-05-26T03:57:29.321Z,94902.66
2019-05-26T03:59:58.187Z,94899.16
2019-05-26T04:02:27.019Z,94895.31
2019-05-26T04:04:55.712Z,94895.31
2019-05-26T04:07:24.719Z,94894.58
2019-05-26T04:10:04.604Z,94890.73
2019-05-26T04:12:24.515Z,94895.53
2019-05-26T04:14:53.232Z,94894.45
2019-05-26T04:17:22.249Z,94891.53
2019-05-26T04:19:51.450Z,94888.85
2019-05-26T04:22:20.419Z,94897.58
2019-05-26T04:24:49.179Z,94896.80
2019-05-26T04:27:17.764Z,94893.39
2019-05-26T04:29:46.637Z,94899.09
2019-05-26T04:32:16.638Z,94897.68
2019-05-26T04:34:45.833Z,94891.96
2019-05-26T04:37:15.281Z,94893.05
2019-05-26T04:39:43.937Z,94896.34
2019-05-26T04:42:12.623Z,94890.38
2019-05-26T04:44:41.773Z,94892.06
2019-05-26T04:47:10.671Z,94892.09
2019-05-26T04:49:39.380Z,94893.86
2019-05-26T04:52:08.102Z,94899.09
2019-05-26T04:54:36.730Z,94899.20
2019-05-26T04:57:05.610Z,94896.73
2019-05-26T04:59:34.246Z,94888.52
2019-05-26T05:02:02.886Z,94890.62
2019-05-26T05:04:31.653Z,94895.84
2019-05-26T05:07:00.816Z,94904.78
2019-05-26T05:09:29.853Z,94886.63
2019-05-26T05:11:58.528Z,94888.47
2019-05-26T05:14:27.618Z,94885.38
2019-05-26T05:16:56.253Z,94889.20
2019-05-26T05:19:24.881Z,94884.81
2019-05-26T05:21:53.691Z,94871.77
2019-05-26T05:24:22.429Z,94874.70
2019-05-26T05:26:51.047Z,94873.25
2019-05-26T05:29:19.976Z,94873.24
2019-05-26T05:31:48.575Z,94870.32
2019-05-26T05:34:17.202Z,94875.42
2019-05-26T05:36:45.905Z,94872.26
2019-05-26T05:39:14.871Z,94872.31
2019-05-26T05:41:44.026Z,94866.36
2019-05-26T05:44:12.957Z,94864.72
2019-05-26T05:46:41.953Z,94865.83
2019-05-26T05:49:10.597Z,94865.74
2019-05-26T05:51:39.266Z,94865.23
2019-05-26T05:54:08.134Z,94859.34
2019-05-26T05:56:36.901Z,94861.90
2019-05-26T05:59:05.657Z,94863.87
2019-05-26T06:01:34.501Z,94868.14
2019-05-26T06:04:03.444Z,94864.23
2019-05-26T06:06:32.082Z,94867.16
2019-05-26T06:09:00.728Z,94865.92
2019-05-26T06:11:29.353Z,94869.30
2019-05-26T06:13:58.448Z,94867.76
2019-05-26T06:16:27.154Z,94866.10
2019-05-26T06:18:55.765Z,94865.47
2019-05-26T06:21:27.540Z,94869.30
2019-05-26T06:23:56.670Z,94858.66
2019-05-26T06:26:25.396Z,94867.84
2019-05-26T06:28:54.286Z,94865.77
2019-05-26T06:31:22.909Z,94872.86
2019-05-26T06:33:51.552Z,94871.69
2019-05-26T06:36:20.241Z,94872.81
2019-05-26T06:38:48.925Z,94871.00
2019-05-26T06:41:32.457Z,94874.08
2019-05-26T06:43:48.194Z,94874.25
2019-05-26T06:46:16.914Z,94873.41
2019-05-26T06:48:45.893Z,94871.44
2019-05-26T06:51:15.461Z,94873.54
2019-05-26T06:53:44.149Z,94876.73
2019-05-26T06:56:12.980Z,94878.55
2019-05-26T06:58:41.661Z,94869.90
2019-05-26T07:01:10.457Z,94879.75
2019-05-26T07:03:39.400Z,94879.89
2019-05-26T07:06:08.416Z,94876.38
2019-05-26T07:08:37.408Z,94880.10
2019-05-26T07:11:06.451Z,94876.73
2019-05-26T07:13:35.171Z,94880.80
2019-05-26T07:16:03.880Z,94874.55
2019-05-26T07:18:33.511Z,94879.72
2019-05-26T07:21:03.026Z,94874.22
2019-05-26T07:23:32.056Z,94871.56
2019-05-26T07:26:00.979Z,94887.59
2019-05-26T07:28:29.714Z,94882.91
2019-05-26T07:30:59.103Z,94870.30
2019-05-26T07:33:28.207Z,94873.94
2019-05-26T07:35:57.157Z,94867.33
2019-05-26T07:38:25.974Z,94871.87
2019-05-26T07:40:54.989Z,94870.38
2019-05-26T07:43:27.873Z,94861.17
2019-05-26T07:45:54.567Z,94867.50
2019-05-26T07:48:23.246Z,94872.11
2019-05-26T07:50:51.891Z,94863.43
2019-05-26T07:53:20.947Z,94855.75
2019-05-26T07:55:49.739Z,94859.84
2019-05-26T07:58:18.599Z,94867.23
2019-05-26T08:00:47.291Z,94875.02
2019-05-26T08:03:16.113Z,94870.34
2019-05-26T08:05:44.748Z,94880.20
2019-05-26T08:08:13.759Z,94860.62
2019-05-26T08:10:42.515Z,94872.23
2019-05-26T08:13:11.140Z,94875.41
2019-05-26T08:15:39.960Z,94872.19
2019-05-26T08:18:08.637Z,94865.40
2019-05-26T08:20:37.371Z,94864.31
2019-05-26T08:23:06.002Z,94859.59
2019-05-26T08:25:35.059Z,94866.88
2019-05-26T08:28:03.894Z,94866.76
2019-05-26T08:30:32.666Z,94868.00
2019-05-26T08:33:02.526Z,94862.43
2019-05-26T08:35:31.814Z,94860.27
2019-05-26T08:38:02.808Z,94859.37
2019-05-26T08:40:33.335Z,94856.89
2019-05-26T08:43:02.294Z,94860.64
2019-05-26T08:45:31.341Z,94848.70
2019-05-26T08:48:00.352Z,94858.14
2019-05-26T08:50:29.024Z,94846.88
2019-05-26T08:52:57.706Z,94853.83
2019-05-26T08:55:26.481Z,94848.52
2019-05-26T08:57:55.072Z,94838.07
2019-05-26T09:00:24.326Z,94842.94
2019-05-26T09:02:53.306Z,94840.14
2019-05-26T09:05:21.992Z,94846.38
2019-05-26T09:07:50.680Z,94851.64
2019-05-26T09:10:19.734Z,94850.89
2019-05-26T09:13:00.318Z,94854.70
2019-05-26T09:15:18.848Z,94854.11
2019-05-26T09:17:48.107Z,94844.20
2019-05-26T09:20:16.960Z,94852.42
2019-05-26T09:22:45.741Z,94851.72
2019-05-26T09:25:14.414Z,94858.33
2019-05-26T09:27:43.180Z,94854.14
2019-05-26T09:30:11.851Z,94852.61
2019-05-26T09:32:40.578Z,94851.97
2019-05-26T09:35:09.304Z,94849.66
2019-05-26T09:37:38.058Z,94858.33
2019-05-26T09:40:07.114Z,94845.02
2019-05-26T09:42:35.874Z,94849.39
2019-05-26T09:45:05.364Z,94851.11
2019-05-26T09:47:34.126Z,94841.65
2019-05-26T09:50:02.733Z,94840.97
2019-05-26T09:52:31.479Z,94840.87
2019-05-26T09:55:00.389Z,94836.17
2019-05-26T09:57:29.095Z,94830.91
2019-05-26T09:59:57.986Z,94832.20
2019-05-26T10:02:26.731Z,94834.69
2019-05-26T10:04:55.499Z,94831.77
2019-05-26T10:07:24.569Z,94833.77
2019-05-26T10:09:53.348Z,94828.80
2019-05-26T10:12:21.978Z,94823.05
2019-05-26T10:14:50.778Z,94825.55
2019-05-26T10:17:23.054Z,94827.73
2019-05-26T10:19:49.941Z,94828.45
2019-05-26T10:22:18.577Z,94830.70
2019-05-26T10:24:47.216Z,94836.39
2019-05-26T10:27:15.891Z,94832.04
2019-05-26T10:29:45.076Z,94828.03
2019-05-26T10:32:13.694Z,94831.58
2019-05-26T10:34:42.381Z,94832.16
2019-05-26T10:37:11.047Z,94826.07
2019-05-26T10:39:39.743Z,94842.26
2019-05-26T10:42:08.639Z,94830.83
2019-05-26T10:44:37.621Z,94824.95
2019-05-26T10:47:06.329Z,94823.15
2019-05-26T10:49:35.332Z,94830.07
2019-05-26T10:52:04.084Z,94814.70
2019-05-26T10:54:32.795Z,94819.13
2019-05-26T10:57:01.510Z,94818.73
2019-05-26T10:59:31.268Z,94817.23
2019-05-26T11:02:00.181Z,94809.50
2019-05-26T11:04:28.801Z,94808.95
2019-05-26T11:06:57.526Z,94806.04
2019-05-26T11:09:26.557Z,94804.13
2019-05-26T11:11:55.160Z,94795.55
2019-05-26T11:14:23.936Z,94799.25
2019-05-26T11:16:52.687Z,94797.31
2019-05-26T11:19:21.847Z,94809.70
2019-05-26T11:21:50.460Z,94794.30
2019-05-26T11:24:19.381Z,94801.22
2019-05-26T11:26:48.605Z,94794.16
2019-05-26T11:29:17.252Z,94797.91
2019-05-26T11:31:46.119Z,94788.70
2019-05-26T11:34:15.150Z,94789.20
2019-05-26T11:36:43.815Z,94794.87
2019-05-26T11:39:12.508Z,94785.25
2019-05-26T11:41:41.133Z,94780.75
2019-05-26T11:44:18.046Z,94787.28
2019-05-26T11:46:40.533Z,94786.61
2019-05-26T11:49:09.185Z,94788.09
2019-05-26T11:51:37.918Z,94792.98
2019-05-26T11:54:06.894Z,94796.46
2019-05-26T11:56:35.897Z,94792.55
2019-05-26T11:59:04.975Z,94791.64
2019-05-26T12:01:33.794Z,94793.39
2019-05-26T12:04:02.421Z,94797.22
2019-05-26T12:06:31.158Z,94788.53
2019-05-26T12:08:59.816Z,94787.02
2019-05-26T12:11:28.681Z,94787.79
2019-05-26T12:13:57.312Z,94787.64
2019-05-26T12:16:28.832Z,94779.02
2019-05-26T12:18:56.441Z,94780.50
2019-05-26T12:21:25.366Z,94779.84
2019-05-26T12:23:55.135Z,94773.76
2019-05-26T12:26:23.834Z,94780.11
2019-05-26T12:28:52.603Z,94772.23
2019-05-26T12:31:21.291Z,94774.33
2019-05-26T12:33:49.953Z,94771.44
2019-05-26T12:36:19.100Z,94769.64
2019-05-26T12:38:50.966Z,94770.88
2019-05-26T12:41:21.348Z,94773.97
2019-05-26T12:43:49.966Z,94772.42
2019-05-26T12:46:18.699Z,94773.89
2019-05-26T12:48:47.410Z,94776.67
2019-05-26T12:51:16.404Z,94775.92
2019-05-26T12:53:45.590Z,94777.33
2019-05-26T12:56:14.365Z,94776.15
2019-05-26T12:58:43.253Z,94779.78
2019-05-26T13:01:11.870Z,94784.42
2019-05-26T13:03:40.563Z,94779.34
2019-05-26T13:06:09.362Z,94778.17
2019-05-26T13:08:38.146Z,94776.69
2019-05-26T13:11:07.113Z,94776.81
2019-05-26T13:13:35.847Z,94777.58
2019-05-26T13:16:05.032Z,94780.37
2019-05-26T13:18:33.700Z,94770.13
2019-05-26T13:21:02.602Z,94768.02
2019-05-26T13:23:31.400Z,94773.13
2019-05-26T13:26:00.257Z,94766.28
2019-05-26T13:28:29.058Z,94763.91
2019-05-26T13:30:58.925Z,94760.42
2019-05-26T13:33:28.374Z,94752.62
2019-05-26T13:35:57.055Z,94754.31
2019-05-26T13:38:26.081Z,94760.63
2019-05-26T13:40:54.761Z,94754.73
2019-05-26T13:43:23.426Z,94751.17
2019-05-26T13:45:54.470Z,94753.30
2019-05-26T13:48:23.221Z,94756.40
2019-05-26T13:50:52.077Z,94754.73
2019-05-26T13:53:20.728Z,94762.95
2019-05-26T13:55:49.684Z,94748.08
2019-05-26T13:58:18.376Z,94745.81
2019-05-26T14:00:47.651Z,94729.52
2019-05-26T14:03:16.401Z,94738.41
2019-05-26T14:05:45.302Z,94734.44
2019-05-26T14:08:14.025Z,94734.10
2019-05-26T14:10:42.718Z,94728.38
2019-05-26T14:13:11.654Z,94731.04
2019-05-26T14:15:40.598Z,94727.47
2019-05-26T14:18:09.563Z,94727.48
2019-05-26T14:20:39.288Z,94719.52
2019-05-26T14:23:09.089Z,94718.02
2019-05-26T14:25:37.809Z,94718.74
2019-05-26T14:28:08.511Z,94714.84
2019-05-26T14:30:37.272Z,94709.72
2019-05-26T14:33:06.264Z,94710.68
2019-05-26T14:35:35.012Z,94713.41
2019-05-26T14:38:04.058Z,94716.81
2019-05-26T14:40:33.083Z,94705.48
2019-05-26T14:43:02.052Z,94708.61
2019-05-26T14:45:31.113Z,94702.52
2019-05-26T14:47:59.810Z,94689.15
2019-05-26T14:50:28.653Z,94689.94
2019-05-26T14:52:57.255Z,94693.50
2019-05-26T14:55:26.607Z,94686.11
2019-05-26T14:57:55.613Z,94682.30
2019-05-26T15:00:25.996Z,94684.68
2019-05-26T15:02:54.759Z,94675.47
2019-05-26T15:05:23.513Z,94674.75
2019-05-26T15:07:52.286Z,94668.90
2019-05-26T15:10:22.699Z,94670.67
2019-05-26T15:12:51.809Z,94675.54
2019-05-26T15:15:20.629Z,94667.69
2019-05-26T15:17:49.354Z,94668.14
2019-05-26T15:20:18.218Z,94666.86
2019-05-26T15:22:47.226Z,94667.09
2019-05-26T15:25:15.976Z,94664.84
2019-05-26T15:27:46.618Z,94666.09
2019-05-26T15:30:16.022Z,94662.12
2019-05-26T15:32:44.834Z,94658.28
2019-05-26T15:35:13.797Z,94655.47
2019-05-26T15:37:42.427Z,94652.50
2019-05-26T15:40:11.464Z,94647.12
2019-05-26T15:42:40.486Z,94647.45
2019-05-26T15:45:09.371Z,94645.09
2019-05-26T15:47:38.021Z,94645.53
2019-05-26T15:50:06.848Z,94645.11
2019-05-26T15:52:35.501Z,94642.69
2019-05-26T15:55:04.415Z,94634.07
2019-05-26T15:57:33.344Z,94634.89
2019-05-26T16:00:02.086Z,94638.96
2019-05-26T16:02:30.693Z,94636.72
2019-05-26T16:04:59.830Z,94631.05
2019-05-26T16:07:28.972Z,94638.45
2019-05-26T16:09:57.772Z,94632.45
2019-05-26T16:12:26.479Z,94620.90
2019-05-26T16:14:55.271Z,94622.76
2019-05-26T16:17:23.912Z,94623.44
2019-05-26T16:19:52.816Z,94626.52
2019-05-26T16:22:21.714Z,94628.70
2019-05-26T16:24:50.669Z,94619.61
2019-05-26T16:27:20.144Z,94616.38
2019-05-26T16:29:49.223Z,94610.77
2019-05-26T16:32:19.247Z,94619.41
2019-05-26T16:34:47.921Z,94615.69
2019-05-26T16:37:16.820Z,94615.59
2019-05-26T16:39:45.818Z,94609.41
2019-05-26T16:42:14.607Z,94604.16
2019-05-26T16:44:43.314Z,94602.66
2019-05-26T16:47:11.911Z,94609.77
2019-05-26T16:49:40.500Z,94610.03
2019-05-26T16:52:09.275Z,94599.34
2019-05-26T16:54:37.984Z,94600.67
2019-05-26T16:57:07.034Z,94601.15
2019-05-26T16:59:36.321Z,94598.79
2019-05-26T17:02:05.219Z,94594.73
2019-05-26T17:04:33.938Z,94594.74
2019-05-26T17:07:02.944Z,94593.12
2019-05-26T17:09:31.941Z,94590.16
2019-05-26T17:12:00.796Z,94591.39
2019-05-26T17:14:29.630Z,94588.38
2019-05-26T17:17:13.424Z,94590.94
2019-05-26T17:19:29.152Z,94580.75
2019-05-26T17:21:58.044Z,94587.34
2019-05-26T17:24:27.825Z,94591.50
2019-05-26T17:26:56.834Z,94591.06
2019-05-26T17:29:25.679Z,94593.80
2019-05-26T17:31:54.293Z,94603.35
2019-05-26T17:34:23.069Z,94606.58
2019-05-26T17:36:51.755Z,94608.80
2019-05-26T17:39:20.508Z,94609.23
2019-05-26T17:41:49.460Z,94608.88
2019-05-26T17:44:18.235Z,94601.96
2019-05-26T17:46:46.982Z,94602.70
2019-05-26T17:49:16.125Z,94598.34
2019-05-26T17:51:45.200Z,94599.41
2019-05-26T17:54:14.106Z,94597.44
2019-05-26T17:56:45.953Z,94598.28
2019-05-26T17:59:14.861Z,94587.40
2019-05-26T18:01:44.090Z,94585.59
2019-05-26T18:04:16.463Z,94583.73
2019-05-26T18:06:45.490Z,94582.37
2019-05-26T18:09:14.183Z,94582.81
2019-05-26T18:11:42.964Z,94572.70
2019-05-26T18:14:11.824Z,94569.22
2019-05-26T18:16:41.075Z,94568.11
2019-05-26T18:19:09.991Z,94570.79
2019-05-26T18:21:39.382Z,94563.46
2019-05-26T18:24:09.547Z,94569.98
2019-05-26T18:26:38.852Z,94560.85
2019-05-26T18:29:07.644Z,94564.44
2019-05-26T18:31:36.542Z,94561.52
2019-05-26T18:34:08.303Z,94557.23
2019-05-26T18:36:37.130Z,94550.85
2019-05-26T18:39:08.016Z,94557.37
2019-05-26T18:41:37.062Z,94555.88
2019-05-26T18:44:06.086Z,94546.78
2019-05-26T18:46:34.917Z,94549.80
2019-05-26T18:49:04.478Z,94550.61
2019-05-26T18:51:36.683Z,94548.08
2019-05-26T18:54:05.982Z,94541.23
2019-05-26T18:56:35.084Z,94541.79
2019-05-26T18:59:03.902Z,94541.78
2019-05-26T19:01:32.812Z,94533.59
2019-05-26T19:04:01.741Z,94526.78
2019-05-26T19:06:30.663Z,94533.20
2019-05-26T19:08:59.392Z,94533.16
2019-05-26T19:11:28.084Z,94536.67
2019-05-26T19:13:56.830Z,94542.07
2019-05-26T19:16:25.628Z,94536.16
2019-05-26T19:18:54.537Z,94526.53
2019-05-26T19:21:23.852Z,94535.48
2019-05-26T19:23:52.672Z,94530.97
2019-05-26T19:26:21.632Z,94532.05
2019-05-26T19:28:50.322Z,94530.52
2019-05-26T19:31:19.119Z,94535.25
2019-05-26T19:33:48.304Z,94535.92
2019-05-26T19:36:16.986Z,94534.47
2019-05-26T19:38:45.755Z,94528.25
2019-05-26T19:41:14.401Z,94528.35
2019-05-26T19:43:43.285Z,94527.23
2019-05-26T19:46:12.208Z,94532.83
2019-05-26T19:48:41.340Z,94525.31
2019-05-26T19:51:10.019Z,94527.53
2019-05-26T19:53:38.903Z,94530.95
2019-05-26T19:56:07.757Z,94527.92
2019-05-26T19:58:36.895Z,94522.66
2019-05-26T20:01:05.839Z,94521.49
2019-05-26T20:03:34.552Z,94525.97
2019-05-26T20:06:03.475Z,94525.14
2019-05-26T20:08:32.158Z,94525.07
2019-05-26T20:11:01.142Z,94526.08
2019-05-26T20:13:29.827Z,94519.20
2019-05-26T20:15:58.567Z,94523.89
2019-05-26T20:18:27.336Z,94521.28
2019-05-26T20:20:56.008Z,94524.78
2019-05-26T20:23:24.684Z,94516.02
2019-05-26T20:25:53.406Z,94510.83
2019-05-26T20:28:22.371Z,94511.56
2019-05-26T20:30:51.372Z,94512.55
2019-05-26T20:33:20.060Z,94512.40
2019-05-26T20:35:49.179Z,94505.60
2019-05-26T20:38:17.809Z,94500.95
2019-05-26T20:40:46.480Z,94501.47
2019-05-26T20:43:15.878Z,94506.23
2019-05-26T20:45:44.581Z,94509.71
2019-05-26T20:48:13.601Z,94509.30
2019-05-26T20:50:42.221Z,94505.69
2019-05-26T20:53:10.972Z,94503.95
2019-05-26T20:55:39.641Z,94504.89
2019-05-26T20:58:08.353Z,94503.45
2019-05-26T21:00:37.518Z,94505.58
2019-05-26T21:03:06.478Z,94494.89
2019-05-26T21:05:35.489Z,94497.64
2019-05-26T21:08:04.236Z,94497.52
2019-05-26T21:10:33.034Z,94495.02
2019-05-26T21:13:01.734Z,94492.89
2019-05-26T21:15:30.661Z,94491.54
2019-05-26T21:17:59.340Z,94489.61
2019-05-26T21:20:28.478Z,94485.26
2019-05-26T21:22:57.351Z,94481.84
2019-05-26T21:25:26.172Z,94482.27
2019-05-26T21:27:54.855Z,94475.37
2019-05-26T21:30:23.789Z,94472.81
2019-05-26T21:32:53.166Z,94469.42
2019-05-26T21:35:21.946Z,94472.27
2019-05-26T21:37:50.700Z,94470.30
2019-05-26T21:40:19.854Z,94464.91
2019-05-26T21:42:49.132Z,94470.20
2019-05-26T21:45:17.922Z,94469.17
2019-05-26T21:47:46.607Z,94465.34
2019-05-26T21:50:15.464Z,94465.48
2019-05-26T21:52:44.322Z,94451.98
2019-05-26T21:55:13.279Z,94450.74
2019-05-26T21:57:41.911Z,94447.23
2019-05-26T22:00:13.229Z,94451.27
2019-05-26T22:02:42.147Z,94442.92
2019-05-26T22:05:11.434Z,94446.40
2019-05-26T22:07:40.159Z,94441.70
2019-05-26T22:10:09.537Z,94443.52
2019-05-26T22:12:38.299Z,94441.05
2019-05-26T22:15:07.815Z,94443.50
2019-05-26T22:17:36.580Z,94443.93
2019-05-26T22:20:05.386Z,94447.98
2019-05-26T22:22:34.018Z,94446.66
2019-05-26T22:25:02.694Z,94440.76
2019-05-26T22:27:31.406Z,94438.00
2019-05-26T22:30:00.044Z,94431.22
2019-05-26T22:32:28.691Z,94423.66
2019-05-26T22:34:57.360Z,94427.06
2019-05-26T22:37:26.308Z,94423.06
2019-05-26T22:39:54.951Z,94430.67
2019-05-26T22:42:24.096Z,94418.44
2019-05-26T22:44:52.687Z,94414.47
2019-05-26T22:47:21.843Z,94419.05
2019-05-26T22:49:50.587Z,94414.26
2019-05-26T22:52:19.273Z,94414.62
2019-05-26T22:54:48.581Z,94407.97
2019-05-26T22:57:17.335Z,94407.70
2019-05-26T22:59:46.304Z,94413.06
2019-05-26T23:02:14.909Z,94410.28
2019-05-26T23:04:43.516Z,94412.25
2019-05-26T23:07:12.231Z,94410.05
2019-05-26T23:09:40.849Z,94410.47
2019-05-26T23:12:09.523Z,94405.86
2019-05-26T23:14:38.141Z,94396.62
2019-05-26T23:17:06.801Z,94400.09
2019-05-26T23:19:35.468Z,94395.94
2019-05-26T23:22:04.216Z,94387.98
2019-05-26T23:24:32.868Z,94380.22
2019-05-26T23:27:01.519Z,94391.53
2019-05-26T23:29:30.160Z,94383.48
2019-05-26T23:31:58.804Z,94377.58
2019-05-26T23:34:27.686Z,94371.39
2019-05-26T23:36:56.749Z,94374.75
2019-05-26T23:39:25.413Z,94364.95
2019-05-26T23:41:54.284Z,94368.78
2019-05-26T23:44:22.919Z,94376.37
2019-05-26T23:46:51.521Z,94366.55
2019-05-26T23:49:20.200Z,94355.84
2019-05-26T23:51:49.041Z,94357.27
2019-05-26T23:54:17.644Z,94352.94
2019-05-26T23:56:46.712Z,94356.51
2019-05-26T23:59:15.355Z,94353.58
